createdAt,value
2023-03-05T00:01:33.431Z,75.90
2023-03-05T00:04:02.078Z,75.80
2023-03-05T00:06:30.574Z,75.60
2023-03-05T00:08:58.604Z,75.30
2023-03-05T00:11:29.823Z,75.30
2023-03-05T00:13:58.000Z,75.40
2023-03-05T00:16:26.951Z,75.40
2023-03-05T00:18:58.046Z,75.40
2023-03-05T00:21:26.348Z,75.40
2023-03-05T00:23:54.382Z,75.50
2023-03-05T00:26:24.971Z,75.50
2023-03-05T00:28:52.621Z,75.50
2023-03-05T00:31:32.213Z,75.40
2023-03-05T00:34:02.269Z,75.30
2023-03-05T00:36:29.517Z,75.20
2023-03-05T00:38:56.989Z,75.30
2023-03-05T00:41:23.943Z,75.20
2023-03-05T00:43:50.966Z,75.20
2023-03-05T00:46:18.969Z,75.20
2023-03-05T00:48:45.870Z,75.20
2023-03-05T00:51:12.875Z,75.30
2023-03-05T00:53:39.880Z,75.30
2023-03-05T00:56:07.397Z,75.40
2023-03-05T00:58:34.565Z,76.30
2023-03-05T01:01:02.853Z,75.80
2023-03-05T01:03:31.515Z,76.10
2023-03-05T01:05:59.163Z,76.10
2023-03-05T01:08:26.855Z,76.10
2023-03-05T01:10:53.785Z,75.90
2023-03-05T01:13:20.848Z,75.60
2023-03-05T01:15:48.778Z,75.50
2023-03-05T01:18:16.835Z,76.20
2023-03-05T01:20:43.875Z,75.60
2023-03-05T01:23:10.897Z,75.60
2023-03-05T01:25:37.898Z,75.50
2023-03-05T01:28:05.918Z,75.50
2023-03-05T01:30:33.283Z,75.40
2023-03-05T01:33:00.378Z,75.30
2023-03-05T01:35:27.566Z,75.60
2023-03-05T01:37:54.761Z,75.70
2023-03-05T01:40:26.291Z,75.90
2023-03-05T01:43:11.971Z,76.00
2023-03-05T01:46:18.380Z,76.10
2023-03-05T01:48:50.131Z,76.10
2023-03-05T01:51:20.272Z,75.80
2023-03-05T01:53:47.704Z,75.70
2023-03-05T01:56:15.681Z,75.50
2023-03-05T01:58:43.467Z,75.50
2023-03-05T02:01:10.627Z,75.50
2023-03-05T02:03:38.969Z,75.70
2023-03-05T02:06:06.035Z,75.80
2023-03-05T02:08:33.042Z,75.80
2023-03-05T02:11:02.673Z,75.70
2023-03-05T02:13:38.273Z,75.50
2023-03-05T02:16:05.486Z,75.50
2023-03-05T02:18:32.757Z,75.30
2023-03-05T02:21:07.389Z,75.40
2023-03-05T02:23:36.740Z,75.50
2023-03-05T02:26:09.710Z,75.40
2023-03-05T02:28:57.179Z,75.30
2023-03-05T02:31:26.404Z,75.30
2023-03-05T02:33:55.894Z,75.20
2023-03-05T02:36:24.523Z,75.20
2023-03-05T02:38:52.952Z,75.20
2023-03-05T02:41:20.522Z,75.20
2023-03-05T02:43:48.264Z,75.20
2023-03-05T02:46:15.303Z,75.20
2023-03-05T02:48:42.511Z,75.40
2023-03-05T02:51:12.192Z,75.40
2023-03-05T02:53:39.185Z,75.60
2023-03-05T02:56:06.383Z,75.60
2023-03-05T02:58:35.308Z,75.60
2023-03-05T03:01:02.300Z,75.70
2023-03-05T03:03:29.434Z,75.80
2023-03-05T03:05:56.402Z,75.90
2023-03-05T03:08:23.309Z,75.90
2023-03-05T03:10:50.237Z,75.90
2023-03-05T03:13:17.198Z,76.10
2023-03-05T03:15:44.163Z,76.20
2023-03-05T03:18:11.094Z,76.20
2023-03-05T03:20:39.228Z,76.20
2023-03-05T03:23:06.931Z,76.00
2023-03-05T03:25:35.316Z,75.70
2023-03-05T03:28:02.503Z,75.50
2023-03-05T03:30:29.408Z,75.30
2023-03-05T03:32:57.214Z,75.10
2023-03-05T03:35:24.128Z,75.00
2023-03-05T03:37:51.121Z,74.80
2023-03-05T03:40:18.320Z,74.70
2023-03-05T03:42:45.325Z,74.60
2023-03-05T03:45:12.834Z,74.60
2023-03-05T03:47:39.776Z,74.50
2023-03-05T03:50:07.000Z,74.40
2023-03-05T03:52:33.930Z,74.30
2023-03-05T03:55:01.636Z,74.20
2023-03-05T03:57:29.881Z,74.10
2023-03-05T03:59:56.986Z,74.00
2023-03-05T04:02:24.048Z,73.80
2023-03-05T04:04:52.627Z,73.80
2023-03-05T04:07:19.868Z,73.70
2023-03-05T04:09:46.844Z,73.50
2023-03-05T04:12:17.960Z,73.30
2023-03-05T04:14:46.849Z,73.20
2023-03-05T04:17:15.100Z,73.20
2023-03-05T04:19:42.648Z,73.20
2023-03-05T04:22:14.868Z,73.10
2023-03-05T04:24:42.448Z,72.90
2023-03-05T04:27:10.526Z,72.90
2023-03-05T04:29:37.695Z,73.10
2023-03-05T04:32:05.172Z,73.40
2023-03-05T04:34:32.967Z,73.70
2023-03-05T04:37:00.053Z,73.70
2023-03-05T04:39:27.029Z,74.30
2023-03-05T04:41:53.944Z,73.50
2023-03-05T04:44:23.275Z,73.50
2023-03-05T04:46:50.343Z,73.80
2023-03-05T04:49:17.304Z,73.80
2023-03-05T04:51:44.261Z,73.70
2023-03-05T04:54:11.155Z,73.60
2023-03-05T04:56:38.061Z,73.60
2023-03-05T04:59:05.007Z,73.60
2023-03-05T05:01:32.992Z,73.70
2023-03-05T05:04:00.037Z,73.50
2023-03-05T05:06:26.927Z,73.30
2023-03-05T05:08:53.835Z,73.00
2023-03-05T05:11:20.720Z,72.70
2023-03-05T05:13:47.630Z,72.50
2023-03-05T05:16:15.608Z,72.30
2023-03-05T05:18:42.674Z,72.20
2023-03-05T05:21:10.960Z,72.20
2023-03-05T05:23:38.812Z,72.20
2023-03-05T05:26:07.884Z,72.20
2023-03-05T05:28:36.120Z,72.00
2023-03-05T05:31:07.855Z,71.90
2023-03-05T05:33:35.136Z,72.00
2023-03-05T05:36:07.205Z,72.20
2023-03-05T05:38:34.318Z,72.30
2023-03-05T05:41:10.227Z,72.40
2023-03-05T05:43:37.305Z,73.20
2023-03-05T05:46:07.224Z,72.40
2023-03-05T05:48:35.864Z,72.30
2023-03-05T05:51:24.417Z,72.20
2023-03-05T05:53:51.383Z,71.90
2023-03-05T05:56:19.617Z,71.80
2023-03-05T05:58:48.177Z,71.70
2023-03-05T06:01:18.535Z,72.30
2023-03-05T06:03:46.498Z,71.50
2023-03-05T06:06:16.500Z,71.40
2023-03-05T06:08:43.653Z,71.40
2023-03-05T06:11:11.212Z,71.30
2023-03-05T06:13:38.661Z,71.00
2023-03-05T06:16:09.264Z,70.70
2023-03-05T06:18:36.283Z,70.30
2023-03-05T06:21:09.154Z,70.10
2023-03-05T06:23:36.101Z,69.90
2023-03-05T06:26:05.845Z,69.60
2023-03-05T06:28:33.184Z,69.20
2023-03-05T06:31:22.013Z,68.90
2023-03-05T06:33:49.937Z,68.60
2023-03-05T06:36:19.960Z,68.50
2023-03-05T06:38:48.925Z,67.20
2023-03-05T06:41:19.521Z,66.30
2023-03-05T06:43:48.785Z,63.80
2023-03-05T06:46:17.420Z,62.80
2023-03-05T06:48:45.075Z,62.20
2023-03-05T06:51:20.333Z,62.30
2023-03-05T06:53:49.572Z,62.50
2023-03-05T06:56:17.255Z,63.60
2023-03-05T06:58:45.971Z,62.40
2023-03-05T07:01:14.433Z,62.10
2023-03-05T07:03:41.742Z,61.90
2023-03-05T07:06:12.910Z,61.60
2023-03-05T07:08:39.958Z,60.90
2023-03-05T07:11:20.298Z,60.20
2023-03-05T07:13:47.947Z,59.90
2023-03-05T07:16:17.956Z,59.40
2023-03-05T07:18:45.762Z,58.40
2023-03-05T07:21:17.483Z,57.70
2023-03-05T07:23:45.596Z,56.00
2023-03-05T07:26:12.800Z,54.30
2023-03-05T07:28:39.988Z,52.70
2023-03-05T07:31:14.440Z,51.40
2023-03-05T07:33:41.629Z,49.40
2023-03-05T07:36:09.167Z,48.50
2023-03-05T07:38:36.447Z,47.40
2023-03-05T07:41:09.490Z,46.20
2023-03-05T07:43:36.810Z,45.10
2023-03-05T07:46:08.819Z,44.20
2023-03-05T07:48:36.021Z,43.50
2023-03-05T07:51:08.349Z,42.50
2023-03-05T07:53:35.361Z,41.90
2023-03-05T07:56:02.520Z,41.70
2023-03-05T07:58:29.683Z,40.30
2023-03-05T08:00:56.612Z,39.50
2023-03-05T08:03:23.759Z,39.10
2023-03-05T08:05:50.725Z,38.50
2023-03-05T08:08:18.620Z,38.40
2023-03-05T08:10:45.604Z,38.40
2023-03-05T08:13:12.510Z,39.00
2023-03-05T08:15:39.477Z,39.30
2023-03-05T08:18:06.834Z,39.40
2023-03-05T08:20:36.769Z,39.20
2023-03-05T08:23:03.916Z,38.50
2023-03-05T08:25:31.427Z,38.60
2023-03-05T08:27:58.321Z,38.40
2023-03-05T08:30:27.490Z,38.50
2023-03-05T08:32:55.050Z,38.30
2023-03-05T08:35:22.329Z,38.50
2023-03-05T08:37:49.228Z,39.20
2023-03-05T08:40:18.092Z,39.70
2023-03-05T08:42:45.067Z,40.50
2023-03-05T08:45:12.385Z,40.90
2023-03-05T08:47:39.574Z,41.80
2023-03-05T08:50:06.597Z,41.60
2023-03-05T08:52:33.463Z,41.90
2023-03-05T08:55:00.717Z,41.30
2023-03-05T08:57:27.474Z,40.10
2023-03-05T08:59:54.317Z,39.60
2023-03-05T09:02:21.311Z,39.10
2023-03-05T09:04:48.094Z,40.90
2023-03-05T09:07:14.868Z,40.30
2023-03-05T09:09:41.745Z,39.50
2023-03-05T09:12:12.017Z,38.20
2023-03-05T09:14:40.200Z,37.80
2023-03-05T09:17:07.088Z,37.40
2023-03-05T09:19:34.013Z,37.00
2023-03-05T09:22:02.078Z,35.90
2023-03-05T09:24:28.899Z,35.40
2023-03-05T09:26:58.388Z,35.00
2023-03-05T09:29:25.251Z,35.40
2023-03-05T09:31:52.219Z,34.80
2023-03-05T09:34:19.284Z,34.50
2023-03-05T09:36:46.166Z,34.30
2023-03-05T09:39:13.217Z,34.50
2023-03-05T09:41:40.054Z,34.70
2023-03-05T09:44:25.380Z,34.40
2023-03-05T09:46:57.150Z,35.10
2023-03-05T09:49:32.041Z,35.10
2023-03-05T09:52:05.498Z,34.60
2023-03-05T09:54:39.939Z,34.60
2023-03-05T09:57:14.001Z,34.50
2023-03-05T09:59:40.916Z,34.70
2023-03-05T10:02:26.310Z,34.70
2023-03-05T10:05:08.142Z,34.90
2023-03-05T10:07:38.268Z,34.70
2023-03-05T10:10:15.808Z,34.10
2023-03-05T10:12:44.147Z,34.20
2023-03-05T10:15:12.237Z,34.20
2023-03-05T10:17:44.958Z,33.80
2023-03-05T10:20:17.544Z,33.70
2023-03-05T10:23:04.396Z,33.80
2023-03-05T10:25:49.268Z,33.20
2023-03-05T10:28:19.681Z,33.20
2023-03-05T10:31:08.594Z,32.40
2023-03-05T10:33:43.329Z,32.40
2023-03-05T10:36:11.231Z,33.00
2023-03-05T10:38:37.961Z,33.30
2023-03-05T10:41:12.233Z,33.10
2023-03-05T10:43:57.434Z,32.40
2023-03-05T10:46:28.322Z,32.30
2023-03-05T10:49:06.401Z,31.70
2023-03-05T10:51:51.940Z,31.80
2023-03-05T10:54:21.781Z,31.30
2023-03-05T10:56:48.851Z,31.00
2023-03-05T10:59:15.637Z,31.20
2023-03-05T11:01:42.492Z,31.30
2023-03-05T11:04:29.216Z,32.20
2023-03-05T11:06:56.017Z,32.50
2023-03-05T11:09:24.176Z,32.30
2023-03-05T11:12:06.063Z,31.30
2023-03-05T11:14:33.555Z,31.10
2023-03-05T11:17:20.335Z,30.80
2023-03-05T11:19:47.180Z,30.60
2023-03-05T11:22:21.898Z,30.30
2023-03-05T11:25:12.530Z,31.10
2023-03-05T11:27:42.943Z,31.60
2023-03-05T11:30:25.955Z,33.30
2023-03-05T11:33:10.004Z,32.50
2023-03-05T11:35:38.722Z,32.40
2023-03-05T11:38:06.464Z,32.00
2023-03-05T11:40:37.191Z,30.90
2023-03-05T11:43:04.712Z,31.80
2023-03-05T11:45:32.764Z,32.40
2023-03-05T11:48:06.932Z,32.50
2023-03-05T11:50:35.528Z,32.10
2023-03-05T11:53:04.182Z,32.00
2023-03-05T11:55:36.240Z,32.50
2023-03-05T11:58:15.312Z,32.70
2023-03-05T12:00:44.007Z,32.80
2023-03-05T12:03:22.675Z,32.80
2023-03-05T12:06:12.870Z,33.10
2023-03-05T12:08:42.843Z,33.10
2023-03-05T12:11:15.429Z,33.70
2023-03-05T12:13:45.403Z,33.30
2023-03-05T12:16:24.353Z,33.40
2023-03-05T12:19:08.721Z,32.40
2023-03-05T12:21:41.079Z,32.10
2023-03-05T12:24:28.126Z,32.30
2023-03-05T12:27:05.954Z,32.60
2023-03-05T12:29:32.736Z,32.30
2023-03-05T12:32:03.613Z,32.80
2023-03-05T12:34:43.025Z,32.40
2023-03-05T12:37:11.811Z,32.50
2023-03-05T12:39:45.270Z,32.60
2023-03-05T12:42:30.405Z,32.90
2023-03-05T12:45:16.287Z,33.30
2023-03-05T12:47:46.798Z,34.10
2023-03-05T12:50:28.824Z,34.40
2023-03-05T12:52:56.980Z,35.10
2023-03-05T12:55:37.054Z,34.80
2023-03-05T12:58:07.249Z,34.40
2023-03-05T13:00:40.112Z,34.00
2023-03-05T13:03:09.642Z,34.50
2023-03-05T13:05:37.707Z,34.90
2023-03-05T13:08:10.277Z,34.20
2023-03-05T13:10:37.181Z,33.90
2023-03-05T13:13:04.095Z,34.10
2023-03-05T13:15:31.408Z,34.80
2023-03-05T13:17:58.341Z,35.80
2023-03-05T13:20:37.755Z,36.20
2023-03-05T13:23:04.618Z,35.90
2023-03-05T13:25:31.679Z,36.20
2023-03-05T13:28:05.618Z,35.30
2023-03-05T13:30:34.394Z,35.10
2023-03-05T13:33:05.476Z,35.30
2023-03-05T13:35:32.827Z,35.40
2023-03-05T13:37:59.782Z,36.20
2023-03-05T13:40:28.139Z,36.90
2023-03-05T13:42:55.771Z,37.30
2023-03-05T13:45:30.383Z,37.50
2023-03-05T13:47:57.216Z,37.30
2023-03-05T13:50:28.938Z,37.00
2023-03-05T13:52:58.349Z,37.90
2023-03-05T13:55:26.146Z,39.50
2023-03-05T13:57:53.571Z,40.70
2023-03-05T14:00:33.911Z,42.10
2023-03-05T14:03:08.441Z,43.10
2023-03-05T14:05:35.348Z,44.00
2023-03-05T14:08:02.478Z,45.00
2023-03-05T14:10:38.873Z,45.40
2023-03-05T14:13:13.263Z,44.70
2023-03-05T14:15:40.563Z,44.70
2023-03-05T14:18:08.625Z,45.10
2023-03-05T14:20:35.435Z,45.00
2023-03-05T14:23:03.017Z,43.60
2023-03-05T14:25:36.532Z,42.50
2023-03-05T14:28:07.250Z,42.30
2023-03-05T14:30:36.231Z,42.00
2023-03-05T14:33:03.664Z,41.30
2023-03-05T14:35:30.792Z,40.20
2023-03-05T14:37:58.946Z,39.50
2023-03-05T14:40:31.050Z,39.50
2023-03-05T14:43:05.534Z,39.60
2023-03-05T14:45:33.692Z,39.90
2023-03-05T14:48:01.403Z,40.20
2023-03-05T14:50:29.741Z,40.20
2023-03-05T14:52:57.801Z,40.60
2023-03-05T14:55:25.875Z,41.10
2023-03-05T14:57:54.890Z,41.00
2023-03-05T15:00:23.647Z,40.00
2023-03-05T15:02:50.781Z,39.30
2023-03-05T15:05:18.496Z,39.40
2023-03-05T15:07:45.618Z,40.00
2023-03-05T15:10:15.038Z,40.40
2023-03-05T15:12:42.465Z,40.60
2023-03-05T15:15:11.336Z,41.50
2023-03-05T15:17:42.465Z,41.00
2023-03-05T15:20:11.703Z,41.00
2023-03-05T15:22:38.639Z,40.90
2023-03-05T15:25:05.585Z,40.80
2023-03-05T15:27:32.370Z,41.60
2023-03-05T15:29:59.708Z,42.60
2023-03-05T15:32:28.048Z,43.30
2023-03-05T15:34:55.264Z,44.10
2023-03-05T15:37:22.704Z,46.00
2023-03-05T15:39:49.643Z,46.80
2023-03-05T15:42:16.462Z,48.10
2023-03-05T15:44:43.310Z,48.90
2023-03-05T15:47:10.440Z,49.50
2023-03-05T15:49:37.267Z,50.00
2023-03-05T15:52:04.199Z,51.00
2023-03-05T15:54:31.488Z,51.10
2023-03-05T15:56:58.404Z,51.50
2023-03-05T15:59:26.643Z,51.80
2023-03-05T16:01:53.643Z,52.70
2023-03-05T16:04:20.593Z,53.70
2023-03-05T16:06:49.480Z,54.20
2023-03-05T16:09:19.631Z,54.80
2023-03-05T16:11:49.189Z,55.70
2023-03-05T16:14:21.365Z,56.00
2023-03-05T16:16:49.925Z,56.40
2023-03-05T16:19:18.743Z,56.60
2023-03-05T16:21:46.476Z,57.00
2023-03-05T16:24:13.856Z,57.40
2023-03-05T16:26:41.512Z,57.80
2023-03-05T16:29:08.727Z,58.20
2023-03-05T16:31:38.301Z,58.50
2023-03-05T16:34:05.283Z,58.90
2023-03-05T16:36:35.456Z,59.30
2023-03-05T16:39:04.761Z,59.70
2023-03-05T16:41:32.288Z,59.90
2023-03-05T16:43:59.821Z,60.20
2023-03-05T16:46:28.820Z,60.60
2023-03-05T16:48:56.288Z,61.00
2023-03-05T16:51:23.871Z,61.30
2023-03-05T16:53:50.954Z,61.70
2023-03-05T16:56:18.526Z,62.00
2023-03-05T16:58:45.493Z,62.30
2023-03-05T17:01:19.424Z,62.80
2023-03-05T17:03:47.754Z,63.40
2023-03-05T17:06:18.112Z,63.70
2023-03-05T17:08:46.666Z,64.00
2023-03-05T17:11:14.598Z,64.60
2023-03-05T17:13:42.394Z,64.80
2023-03-05T17:16:12.016Z,65.30
2023-03-05T17:18:39.213Z,65.70
2023-03-05T17:21:07.513Z,66.10
2023-03-05T17:23:36.453Z,66.30
2023-03-05T17:26:12.300Z,66.80
2023-03-05T17:28:39.966Z,67.50
2023-03-05T17:31:07.186Z,67.60
2023-03-05T17:33:35.103Z,67.90
2023-03-05T17:36:02.750Z,68.20
2023-03-05T17:38:30.334Z,68.50
2023-03-05T17:40:57.411Z,68.60
2023-03-05T17:43:24.541Z,68.90
2023-03-05T17:45:51.474Z,69.10
2023-03-05T17:48:18.464Z,69.40
2023-03-05T17:50:46.258Z,69.70
2023-03-05T17:53:13.414Z,70.00
2023-03-05T17:55:40.456Z,70.20
2023-03-05T17:58:07.961Z,70.30
2023-03-05T18:00:35.929Z,70.40
2023-03-05T18:03:03.478Z,70.40
2023-03-05T18:05:30.796Z,70.30
2023-03-05T19:41:59.644Z,72.80
2023-03-05T19:44:27.028Z,72.80
2023-03-05T19:46:54.215Z,72.90
2023-03-05T19:49:22.164Z,72.80
2023-03-05T19:51:49.738Z,72.70
2023-03-05T19:54:19.875Z,72.70
2023-03-05T19:56:47.689Z,72.60
2023-03-05T19:59:17.995Z,72.40
2023-03-05T20:01:45.911Z,72.30
2023-03-05T20:04:15.045Z,72.30
2023-03-05T20:06:42.418Z,72.40
2023-03-05T20:09:09.933Z,72.40
2023-03-05T20:11:37.348Z,72.50
2023-03-05T20:14:05.015Z,73.30
2023-03-05T20:16:38.151Z,72.50
2023-03-05T20:19:08.316Z,72.70
2023-03-05T20:21:39.242Z,72.60
2023-03-05T20:24:10.298Z,73.00
2023-03-05T20:26:39.967Z,73.90
2023-03-05T20:29:07.171Z,74.60
2023-03-05T20:31:36.861Z,74.50
2023-03-05T20:34:13.029Z,74.50
2023-03-05T20:36:40.343Z,74.70
2023-03-05T20:39:08.143Z,74.60
2023-03-05T20:41:37.686Z,74.70
2023-03-05T20:44:05.396Z,74.80
2023-03-05T20:46:35.632Z,74.80
2023-03-05T20:49:04.134Z,75.00
2023-03-05T20:51:35.068Z,75.20
2023-03-05T20:54:05.809Z,75.30
2023-03-05T20:56:34.937Z,75.30
2023-03-05T20:59:04.674Z,75.30
2023-03-05T21:01:33.628Z,75.40
2023-03-05T21:04:01.451Z,75.60
2023-03-05T21:06:30.654Z,75.60
2023-03-05T21:08:58.205Z,75.80
2023-03-05T21:11:25.710Z,75.70
2023-03-05T21:13:52.914Z,75.60
2023-03-05T21:16:24.035Z,76.30
2023-03-05T21:18:51.967Z,75.60
2023-03-05T21:21:19.518Z,75.80
2023-03-05T21:23:47.243Z,76.10
2023-03-05T21:26:29.015Z,76.40
2023-03-05T21:28:56.053Z,76.70
2023-03-05T21:31:23.414Z,76.60
2023-03-05T21:33:50.417Z,76.70
2023-03-05T21:36:18.782Z,76.70
2023-03-05T21:38:49.869Z,76.70
2023-03-05T21:41:18.247Z,76.80
2023-03-05T21:43:45.244Z,76.90
2023-03-05T21:46:12.560Z,77.10
2023-03-05T21:48:39.552Z,77.20
2023-03-05T21:52:06.684Z,77.20
2023-03-05T21:54:36.347Z,77.40
2023-03-05T21:57:03.273Z,77.10
2023-03-05T21:59:30.233Z,77.10
2023-03-05T22:01:57.288Z,77.10
2023-03-05T22:04:24.799Z,77.20
2023-03-05T22:06:51.782Z,77.30
2023-03-05T22:09:18.702Z,77.20
2023-03-05T22:11:45.712Z,77.30
2023-03-05T22:14:12.774Z,77.40
2023-03-05T22:16:40.521Z,77.50
2023-03-05T22:19:07.411Z,77.80
2023-03-05T22:21:34.321Z,78.00
2023-03-05T22:24:01.269Z,78.20
2023-03-05T22:26:38.074Z,78.40
2023-03-05T22:29:05.766Z,78.90
2023-03-05T22:31:32.797Z,78.90
2023-03-05T22:33:59.709Z,79.20
2023-03-05T22:36:26.686Z,79.40
2023-03-05T22:38:53.612Z,79.80
2023-03-05T22:41:21.369Z,79.90
2023-03-05T22:43:50.254Z,80.20
2023-03-05T22:46:20.650Z,80.20
2023-03-05T22:48:48.018Z,80.10
2023-03-05T22:51:17.145Z,80.00
2023-03-05T22:53:45.172Z,79.80
2023-03-05T22:56:17.975Z,79.70
2023-03-05T22:58:45.531Z,79.70
2023-03-05T23:01:15.096Z,79.60
2023-03-05T23:04:24.711Z,80.30
2023-03-05T23:07:09.436Z,79.50
2023-03-05T23:09:36.652Z,79.40
2023-03-05T23:12:03.713Z,79.40
2023-03-05T23:14:30.632Z,79.40
2023-03-05T23:16:57.539Z,79.50
2023-03-05T23:19:24.712Z,79.50
2023-03-05T23:21:51.634Z,79.50
2023-03-05T23:24:18.539Z,79.50
2023-03-05T23:26:45.504Z,79.40
2023-03-05T23:30:19.166Z,79.40
2023-03-05T23:32:59.599Z,79.60
2023-03-05T23:35:33.211Z,79.60
2023-03-05T23:38:01.599Z,79.60
2023-03-05T23:40:31.764Z,79.60
2023-03-05T23:42:59.099Z,79.70
2023-03-05T23:45:27.462Z,79.70
2023-03-05T23:47:54.830Z,79.80
2023-03-05T23:50:30.429Z,79.80
2023-03-05T23:53:00.014Z,79.90
2023-03-05T23:55:32.598Z,80.00
2023-03-05T23:58:00.854Z,80.10
